ACT        NSW        VIC        QLD        SA        WA        TAS        NT        INFO        CALC            by VK5ZD

Past Date/Time: (dd/mm/yyyy hh:mm or blank for current data)    

  Atmospheric Gas Attenuation - ITU Rec 676-11   --------------- dB/100km ---------------
WA Stations Date Time Temp RH % AH g/m3 Dew Point Wind Direction Speed kph Gust kph Barometer mB Rainfall Since 9am 24GHz 47GHz 76GHz 122GHz 134GHz 241GHz
Albany Airport 04/09 06:40 11.2 92 9.33 10 24 44 1008.4 1.8 21.3 27.7 44.0 115.6 111.5 383.9
Badgingarra 04/09 06:40 11.7 89 9.31 9.9 15 19 1013.1 3.6 21.2 27.7 43.8 115.2 110.9 381.9
Barimunya 04/09 06:40 19.3 35 5.8 3.5 9 9 1013.1 0 13.4 20.3 27.3 71.0 59.1 201.4
Barrow Island 04/09 06:40 19.4 67 11.18 13.1 32 39 1017.5 0 24.8 28.5 47.4 124.6 125.1 432.4
Bickley 04/09 06:40 10.7 90 8.84 9.1 22 39 1013.1 10.4 20.3 27.2 42.4 111.3 105.7 363.8
Boolgeeda 04/09 06:40 16.3 41 5.69 3 2 4 1013.1 0 13.3 20.9 27.9 72.7 60.1 204.5
Bridgetown 04/09 06:40 10.8 88 8.7 8.9 7 13 1012.6 1.8 20.0 26.9 41.7 109.6 103.6 356.4
Broome 04/09 06:40 20.4 94 16.63 19.4 2 9 1016.3 0 36.3 37.8 70.6 186.6 201.7 699.6
Bunbury 04/09 06:40 14.6 77 9.64 10.6 20 32 1014.3 2.2 21.8 27.4 43.7 114.7 111.3 383.8
Busselton Airport 04/09 06:40 12.2 71 7.66 7.1 15 22 1013.6 1 17.7 24.9 36.8 96.5 88.0 301.9
Cape Leeuwin 04/09 06:40 14.2 64 7.82 7.5 56 65 1013.2 2.2 17.9 24.5 36.5 95.7 87.8 301.4
Cape Naturaliste 04/09 06:40 13.6 68 8 7.8 41 57 1013.5 2.4 18.3 25.0 37.5 98.4 90.8 311.9
Carnarvon 04/09 06:40 13.2 94 10.79 12.3 11 11 1020.4 0 24.3 30.1 49.7 130.8 130.2 449.7
Christmas Creek 04/09 06:40 20.4 38 6.72 5.6 6 7 1016.8 0 15.3 21.5 30.1 78.7 68.7 235.3
Christmas Island 04/09 06:40 23.3 86 17.98 20.8 20 30 1015.6 0 38.9 39.0 74.2 196.2 214.4 744.3
Collie East 04/09 06:40 11.6 81 8.42 8.5 11 24 1013.1 3 19.3 26.2 40.2 105.4 98.8 339.6
Coondewanna 04/09 06:40 15.1 40 5.16 1.6 0 0 1013.1 0 12.2 20.4 26.5 68.8 54.9 186.2
Cunderdin Airport 04/09 06:40 11.1 93 9.37 10 17 20 1014.9 0 21.4 28.1 44.5 117.0 112.8 388.4
Curtin 04/09 06:40 20 93 16.07 18.8 7 11 1016.2 0 35.2 36.9 68.3 180.5 194.0 673.1
Dalwallinu 04/09 06:40 12.2 92 9.93 10.9 9 13 1017.3 0.6 22.5 28.8 46.4 122.0 119.2 411.1
Derby 04/09 06:40 21.8 86 16.5 19.4 7 11 1017 0 35.9 37.0 68.8 181.7 196.0 680.3
Dwellingup 04/09 06:40 11.5 82 8.47 8.5 22 37 1014.7 10 19.4 26.4 40.5 106.3 99.7 342.8
Eliwana Airport 04/09 06:40 18.2 41 6.37 4.7 6 6 1013.1 0 14.7 21.4 29.6 77.2 66.4 226.8
Esperance 04/09 06:40 13.6 75 8.83 9.3 32 44 1009 0.2 20.1 26.2 40.6 106.7 101.4 348.9
Esperance Airport 04/09 06:40 12.3 79 8.58 8.8 30 37 1009.7 0.2 19.6 26.2 40.3 105.9 99.8 343.1
Eucla 04/09 06:40 13.9 98 11.75 13.6 6 7 1012.3 0 26.4 31.2 53.1 139.9 142.1 491.3
Fitzroy Crossing 04/09 06:40 22.3 51 10.07 11.7 11 15 1016 0 22.3 25.9 41.3 108.6 106.3 367.2
Forrest 04/09 06:40 10.9 96 9.55 10.3 1012.7 0 21.8 28.4 45.3 119.1 115.4 397.6
Fortescue Dave Forrest 04/09 06:40 20.9 38 6.92 6.1 6 9 1016 0 15.7 21.6 30.6 79.9 70.5 241.6
Garden Island 04/09 06:40 16.5 70 9.83 11 35 48 1015.7 8.6 22.1 27.2 43.5 114.2 111.3 383.9
Geraldton Airport 04/09 06:40 15.6 92 12.23 14.3 11 17 1018.8 1.6 27.3 31.7 54.4 143.3 146.6 507.2
Gerangamete (Cfa) 04/09 08:30 8 80 6.62 4.7 7 11 1013.1 0 15.6 24.3 34.5 90.4 78.8 269.1
Giles* 04/09 08:10 23.5 22 4.65 0.6 24 33 1015 0 10.9 18.1 22.4 58.2 44.5 150.4
Gingin Airport 04/09 06:40 14 89 10.74 12.2 17 22 1016.9 4.2 24.2 29.6 48.8 128.4 127.8 441.3
Golden Grove 04/09 06:40 10.5 97 9.41 10 9 13 1013.1 0 21.5 28.3 44.9 118.2 114.1 392.8
Gooseberry Hill 04/09 06:40 12 97 10.34 11.5 28 41 1013.1 0 23.4 29.4 48.1 126.6 125.0 431.4
Gudai-Darri Mine 04/09 06:40 22.6 29 5.83 3.7 6 13 1013.1 0 13.4 19.7 26.3 68.5 57.1 194.7
Halls Creek 04/09 08:10 22.7 47 9.5 10.8 0 0 1015.8 0 21.1 24.9 39.0 102.4 98.8 341.0
Hopetoun North 04/09 06:40 12.8 93 10.42 11.7 22 32 1008.8 0 23.6 29.1 47.7 125.7 124.4 429.4
Iron Bridge Mine 04/09 06:40 18.5 59 9.33 10.3 0 2 1013.1 0 20.9 25.7 40.3 105.9 101.8 351.0
Jacup 04/09 06:40 10.9 81 8.06 7.8 26 44 1009.3 0.2 18.6 25.7 38.9 102.0 94.5 324.5
Jandakot 04/09 06:40 15 70 8.98 9.6 26 35 1015.3 6.2 20.3 26.2 40.8 107.1 102.0 351.4
Kalgoorlie-Boulder 04/09 06:40 9.6 88 8.06 7.7 11 15 1014.8 0 18.6 26.3 39.8 104.3 96.6 331.4
Kalumburu 04/09 08:10 21.6 95 18.02 20.8 0 0 1017.2 0 39.2 40.0 76.2 201.5 220.2 764.4
Karijini North 04/09 06:40 22.9 24 4.9 1.3 20 28 1014.9 0 11.5 18.5 23.4 60.6 47.4 160.4
Karratha 04/09 06:40 19.4 62 10.34 11.9 17 19 1016.3 0 23.0 27.1 43.9 115.5 113.8 393.2
Katanning Rs 04/09 06:40 10.1 83 7.85 7.3 24 35 1011.2 0.4 18.2 25.7 38.5 101.0 92.8 318.4
Koolan Island / Koolan Central 04/09 06:40 24.6 84 18.91 21.7 6 7 1013.1 0 40.8 40.1 77.2 204.1 224.6 779.9
Kununurra Airport 04/09 08:10 21.8 82 15.73 18.6 0 2 1016.9 0 34.3 35.5 65.2 172.3 184.5 640.0
Lake Grace 04/09 06:40 11.7 88 9.21 9.8 17 28 1012.1 0.8 21.0 27.5 43.4 114.0 109.4 376.7
Lancelin (Defence) 04/09 06:40 15.8 99 13.33 15.6 24 35 1017.2 2.8 29.6 33.6 59.1 156.0 162.4 562.2
Laverton 04/09 06:40 11.2 87 8.82 9.1 9 13 1015.9 0 20.2 27.1 42.2 110.7 105.0 361.3
Learmonth 04/09 06:40 15.3 81 10.58 12.1 19 24 1019.6 0 23.7 29.0 47.4 124.8 123.7 427.1
Legendre Island 04/09 06:40 21.9 68 13.12 15.7 28 33 1016.4 0 28.7 30.9 53.7 141.7 146.9 508.9
Leinster 04/09 06:40 11.8 64 6.74 5.2 7 9 1016.3 0 15.7 23.6 33.5 87.7 76.8 262.5
Leonora Airport 04/09 06:40 10.1 76 7.19 6.1 9 13 1016.6 0 16.7 24.8 36.1 94.4 84.4 288.9
Lombadina 04/09 06:40 21.9 95 18.33 21.1 6 7 1013.1 0 39.9 40.2 77.1 204.0 223.6 776.2
Mandora 04/09 06:40 20.4 98 17.33 20.1 0 0 1015.7 0.2 37.8 39.1 74.0 195.5 212.6 737.6
Mandurah 04/09 06:40 15.6 60 7.98 7.9 22 35 1015.1 2.2 18.2 24.5 36.6 95.9 88.4 303.7
Manjimup 04/09 06:40 10.1 95 8.99 9.3 15 32 1012 2.8 20.6 27.6 43.3 113.8 108.6 373.7
Marble Bar 04/09 06:40 20.5 47 8.36 8.8 4 6 1015.3 0 18.8 23.8 35.8 93.9 87.6 301.6
Mardie 04/09 06:40 17.9 59 9.01 9.8 15 20 1017.3 0 20.3 25.5 39.6 103.8 98.9 340.6
Meekatharra 04/09 06:40 12 70 7.46 6.7 17 20 1018 0 17.2 24.8 36.3 95.1 86.0 294.6
Millendon (Swan Valley) 04/09 06:40 14.6 75 9.39 10.2 13 19 1015.6 4.4 21.2 27.0 42.7 112.1 108.1 372.4
Morawa Airport 04/09 06:40 12.2 97 10.47 11.7 7 7 1018.7 0.2 23.7 29.8 48.8 128.5 127.1 438.7
Mount Keith 04/09 06:40 12.6 59 6.53 4.8 13 15 1013.1 0 15.2 23.0 32.3 84.4 73.2 250.0
Mount Magnet Airport 04/09 06:40 10 95 8.93 9.2 9 13 1018.2 0 20.5 27.8 43.4 114.0 108.4 373.0
Munglinup West 04/09 06:40 12.2 81 8.74 9 17 28 1009.9 0.2 20.0 26.5 41.0 107.8 102.1 351.2
Newdegate 04/09 06:40 10.9 90 8.95 9.3 24 33 1011.5 0.4 20.5 27.3 42.7 112.1 106.9 367.7
Newman Airport 04/09 06:40 17.7 38 5.73 3.2 7 9 1015.4 0 13.3 20.7 27.6 72.0 59.6 203.0
Norseman Airport 04/09 06:40 10.7 81 7.96 7.6 11 13 1012.5 0 18.4 25.7 38.7 101.5 93.7 321.5
North Island 04/09 06:40 17.1 85 12.37 14.6 26 33 1019.4 2.2 27.5 31.4 54.0 142.3 145.8 504.7
Onslow Airport 04/09 06:40 17 68 9.84 11.1 22 28 1018.7 0 22.1 27.2 43.4 113.9 111.0 382.8
Paraburdoo 04/09 06:40 16.3 34 4.72 0.4 6 7 1016 0 11.3 19.6 24.7 64.1 49.4 166.8
Pearce 04/09 06:40 13.6 85 10 11.1 11 13 1015.8 3.6 22.6 28.4 45.8 120.4 117.9 406.7
Perth 04/09 06:40 15.6 67 8.91 9.5 13 24 1015.8 2.8 20.2 26.0 40.2 105.6 100.4 345.6
Perth Airport 04/09 06:40 15.5 69 9.12 9.8 24 33 1015.1 2.6 20.6 26.3 41.1 107.9 103.2 355.5
Port Hedland 04/09 06:40 17.8 94 14.27 16.8 11 11 1015.6 0 31.5 34.5 61.8 163.1 171.9 595.7
Portable Btsa (Dfes) 04/09 06:30 10.6 92 8.98 9.4 0 0 1013.1 0 20.6 27.5 43.0 113.1 107.8 371.1
Portable Btsd (Dfes) 04/09 06:30 9 94 8.29 8.1 17 19 1013.1 0 19.2 26.8 41.0 107.5 100.4 344.7
Portable Btse (Dfes) 04/09 06:30 16 94 12.81 15 2 4 1013.1 0 28.5 32.4 56.4 148.7 153.7 532.1
Portable Btsf (Dfes) 04/09 06:00 16.6 56 7.91 7.8 15 17 1013.1 0 18.0 24.0 35.8 93.8 86.3 296.3
Portable Btsh (Dfes) 03/09 21:40 10.1 67 6.34 4.2 4 6 1013.1 0 14.9 23.3 32.6 85.1 73.1 249.5
Portable Btsj (Dfes) 04/09 06:30 14.7 75 9.44 10.3 11 17 1013.1 5.6 21.3 27.0 42.7 112.3 108.4 373.5
Portable Btsl (Dfes) 04/09 06:30 3.2 87 5.25 1.3 11 13 1013.1 0 12.8 23.4 31.0 80.9 65.0 220.1
Portable Btsm (Dfes) 04/09 06:30 17.4 41 6.08 4.2 4 6 1013.1 0 14.1 21.2 28.9 75.3 63.7 217.3
Portable Btsn (Dfes) 04/09 06:30 11.4 82 8.42 8.4 9 13 1013.1 0 19.3 26.3 40.3 105.7 99.0 340.4
Portable Btso (Dfes) 04/09 06:30 11.4 80 8.21 8.1 9 11 1013.1 2.8 18.9 26.0 39.4 103.4 96.2 330.5
Red Rocks Point 03/09 21:46 15.7 87 11.64 13.5 20 22 1015.7 0 26.0 30.5 51.6 135.8 137.6 475.6
Rocky Gully South 04/09 06:40 10.5 89 8.63 8.8 26 41 1013.1 0.6 19.8 26.9 41.6 109.3 103.1 354.5
Roebourne Airport 04/09 06:40 17.2 65 9.52 10.6 2 6 1016.4 0 21.4 26.5 41.9 110.0 106.3 366.4
Rottnest Island 04/09 06:40 15.5 60 7.93 7.8 39 52 1016.1 5.8 18.1 24.5 36.5 95.6 87.9 302.1
Salmon Gums Rs 04/09 06:40 11.8 81 8.53 8.6 15 22 1013.1 0 19.5 26.4 40.5 106.4 100.0 343.9
Shannon 04/09 06:40 10.5 94 9.12 9.6 26 44 1013.1 4 20.9 27.8 43.7 114.8 109.9 378.4
Shark Bay Airport 04/09 06:40 14.8 96 12.16 14.2 9 13 1019.8 0 27.2 31.9 54.7 144.1 147.3 509.4
Solomon Airport 04/09 06:40 18 38 5.84 3.5 13 19 1017.4 0 13.6 20.8 28.0 72.9 60.8 207.0
Southern Cross Airport 04/09 06:40 11.5 93 9.61 10.4 20 26 1015.1 0 21.9 28.4 45.3 119.2 115.6 398.2
Swanbourne 04/09 06:40 16.2 93 12.82 15.1 32 44 1013.1 1.6 28.5 32.3 56.3 148.5 153.5 531.2
Telfer 04/09 06:40 20.4 48 8.49 9 6 9 1014.9 0 19.0 24.0 36.3 95.2 89.3 307.3
Thevenard Island 04/09 06:40 18.4 65 10.22 11.7 35 46 1018.3 0 22.8 27.3 44.1 115.9 113.9 393.3
Troughton Island 04/09 08:10 26 80 19.48 22.3 9 11 1017.2 0 41.8 40.6 78.7 208.1 229.8 798.2
Truscott 04/09 08:10 24.1 89 19.47 22.2 0 0 1016.5 0 42.0 41.5 80.6 213.2 235.4 817.6
Walpole North 04/09 06:40 11.4 69 7.08 5.9 32 56 1010.2 0.2 16.4 24.0 34.8 91.0 81.1 277.7
Wandering 04/09 06:40 11.5 81 8.37 8.4 9 13 1013.1 3.2 19.2 26.2 40.0 105.0 98.2 337.6
Warburton 04/09 08:10 22.1 29 5.66 3.3 13 19 1012.5 0 13.1 19.5 25.9 67.4 55.6 189.4
West Angelas 04/09 06:40 16.9 37 5.32 2.1 6 9 1017.7 0 12.5 20.4 26.6 69.1 55.7 189.2
West Musgrave Airport 04/09 06:40 24.9 23 5.26 2.4 24 32 1013.1 0 12.1 18.5 23.9 62.0 49.7 169.0
Wiluna Airport 04/09 06:40 13.6 57 6.71 5.3 7 9 1016.9 0 15.6 23.1 32.7 85.5 74.7 255.5
Witchcliffe West 04/09 06:40 12.6 82 9.07 9.6 24 37 1013.8 1.8 20.7 27.0 42.4 111.3 106.4 366.2
Wyndham Airport 04/09 08:10 26.3 58 14.36 17.6 6 6 1016.8 0 31.0 31.4 55.8 147.3 155.1 538.2
Yampi Sound (Defence) 04/09 06:40 19.8 79 13.49 16 2 4 1020.5 0 29.7 32.5 57.0 150.4 156.7 542.9

Last Refresh: 04-Sep-2026 08:22:40

Bureau of Meteorology